Juneau, AK

10:57 AM AKDT on August 30, 2016 (GMT -0800)
Juneau International | | Change Station

Elev 23 ft 58.35 °N, 134.58 °W | Updated 4 minutes ago

Overcast
Overcast
62 °F
Feels Like 62 °F
N
16
Wind Variable Wind from East
Gusts 26 mph

Today
High -- | Low -- °F
--% Chance of Precip.
Yesterday
High -- | Low -- °F
Precip. -- in
Pressure 29.95 in
Visibility 10.0 miles
Clouds Mostly Cloudy 12000 ft
Overcast 20000 ft
Dew Point 40 °F
Humidity 44%
Rainfall 0.01 in
Snow Depth Not available.
5:54 AM 8:01 PM
Waning Crescent, 3% visible
METAR PAJN 301853Z 09014G23KT 10SM BKN120 OVC200 17/04 A2995 RMK AO2 SLP142 T01670044
Pressure 29.95 in
Visibility 10.0 miles
Clouds Mostly Cloudy 12000 ft
Overcast 20000 ft
Dew Point 40 °F
Humidity 44%
Rainfall 0.01 in
Snow Depth Not available.
5:54 AM 8:01 PM
Waning Crescent, 3% visible
METAR PAJN 301853Z 09014G23KT 10SM BKN120 OVC200 17/04 A2995 RMK AO2 SLP142 T01670044

10-Day Weather Forecast

Almanac

Astronomy

Aug. 30, 2016 Rise Set
Actual Time
Civil Twilight
Nautical Twilight
Astronomical Twilight
Moon
Length of Visible Light
Length of Day
Tomorrow will be .
, % of the Moon is Illuminated

Today's Extremes

State Highs State Lows

Community

WunderPhotos

Upload Photos

1,935,875 photos uploaded!

WunderBlog® & News

Nearby

Air Quality

  Air Quality AQ Index Pollutant
Not available.

Snow Depth

Station Depth Elevation

Earthquake Activity

City Distance Mag. Time & Date
Minimum magnitude displayed is 2.5.

Coastal Water Temperatures

Place Temperature

Stations

Nearby Weather Stations

Station Location Temp. Windchill Dew Point Humidity Wind Precip. Elev Updated Type
                   

Watches & Warnings

There are currently no watches in effect.